Time;durP1;ratioP1;P1;durP2;ratioP2;P2;SDS_P1;SDS_P2;PMS_P1;PMS_P2;Temp;Humidity;BMP_temperature;BMP_pressure;BME280_temperature;BME280_humidity;BME280_pressure;Samples;Min_cycle;Max_cycle;Signal;HPM_P1;HPM_P2
2021/01/16 00:01:15;;;;;;;8.40;7.27;;;0.10;99.90;;;;;;5075475;28;20289;-82
2021/01/16 00:03:43;;;;;;;8.67;6.77;;;0.00;99.90;;;;;;5071436;28;20221;-76
2021/01/16 00:06:10;;;;;;;11.07;7.73;;;0.10;99.90;;;;;;5062585;28;20221;-75
2021/01/16 00:08:38;;;;;;;9.57;8.07;;;0.20;99.90;;;;;;5068663;28;20593;-76
2021/01/16 00:11:05;;;;;;;9.00;7.97;;;0.30;99.90;;;;;;5059908;28;20309;-76
2021/01/16 00:13:33;;;;;;;8.00;6.53;;;0.40;99.90;;;;;;5060137;28;20213;-77
2021/01/16 00:16:02;;;;;;;7.30;6.60;;;0.40;99.90;;;;;;5075581;28;20244;-83
2021/01/16 00:18:31;;;;;;;10.30;8.10;;;0.30;99.90;;;;;;5073641;28;20226;-81
2021/01/16 00:20:59;;;;;;;8.50;7.43;;;0.20;99.90;;;;;;5060059;28;20249;-82
2021/01/16 00:23:28;;;;;;;7.57;6.83;;;0.20;99.90;;;;;;5044402;28;20215;-81
2021/01/16 00:25:56;;;;;;;8.97;8.07;;;0.20;99.90;;;;;;5049274;28;20259;-82
2021/01/16 00:28:25;;;;;;;8.83;7.77;;;0.20;99.90;;;;;;5064473;28;20235;-83
2021/01/16 00:30:53;;;;;;;8.83;6.70;;;0.20;99.90;;;;;;5057835;28;20219;-82
2021/01/16 00:33:23;;;;;;;8.80;7.10;;;0.20;99.90;;;;;;5084971;28;20587;-82
2021/01/16 00:35:51;;;;;;;10.53;7.40;;;0.10;99.90;;;;;;5058370;28;20222;-81
2021/01/16 00:38:19;;;;;;;9.70;7.80;;;0.20;99.90;;;;;;5051892;28;20235;-81
2021/01/16 00:40:47;;;;;;;8.80;7.90;;;0.20;99.90;;;;;;5076588;28;20210;-81
2021/01/16 00:43:16;;;;;;;9.43;7.87;;;0.10;99.90;;;;;;5076229;28;20225;-82
2021/01/16 00:45:45;;;;;;;8.83;7.93;;;0.10;99.90;;;;;;5077061;28;20353;-80
2021/01/16 00:48:15;;;;;;;9.80;8.30;;;0.10;99.90;;;;;;5054878;28;20640;-79
2021/01/16 00:50:45;;;;;;;9.83;7.80;;;0.10;99.90;;;;;;5070279;28;20308;-79
2021/01/16 00:53:21;;;;;;;8.13;7.37;;;0.00;99.90;;;;;;5072360;28;20213;-80
2021/01/16 00:56:09;;;;;;;6.90;6.30;;;0.10;99.90;;;;;;5069503;28;20256;-80
2021/01/16 00:58:55;;;;;;;7.57;6.87;;;0.10;99.90;;;;;;5056282;28;20222;-79
2021/01/16 01:01:53;;;;;;;7.27;6.57;;;0.00;99.90;;;;;;5073150;28;20229;-82
2021/01/16 01:04:30;;;;;;;8.17;6.77;;;-0.10;99.90;;;;;;5073307;28;20262;-82
2021/01/16 01:07:00;;;;;;;8.87;7.33;;;0.00;99.90;;;;;;5069808;28;20260;-79
2021/01/16 01:09:29;;;;;;;7.03;6.33;;;0.10;99.90;;;;;;5072440;28;20209;-80
2021/01/16 01:11:56;;;;;;;12.07;7.73;;;-0.10;99.90;;;;;;5090651;28;20219;-79
2021/01/16 01:14:26;;;;;;;5.50;4.93;;;-0.10;99.90;;;;;;5056436;28;20217;-79
2021/01/16 01:16:54;;;;;;;6.33;5.30;;;-0.20;99.90;;;;;;5074915;28;20245;-80
2021/01/16 01:19:22;;;;;;;4.80;4.30;;;-0.20;99.90;;;;;;5041937;28;20596;-79
2021/01/16 01:21:50;;;;;;;5.43;4.00;;;-0.20;99.90;;;;;;5056950;28;20214;-80
2021/01/16 01:24:18;;;;;;;4.67;4.27;;;-0.20;99.90;;;;;;5091180;28;20235;-80
2021/01/16 01:26:46;;;;;;;5.10;4.60;;;-0.30;99.90;;;;;;5072218;28;20333;-79
2021/01/16 01:29:13;;;;;;;5.40;4.90;;;-0.20;99.90;;;;;;5089394;28;20264;-80
2021/01/16 01:31:45;;;;;;;4.97;4.53;;;-0.10;99.90;;;;;;5055363;28;20211;-80
2021/01/16 01:34:13;;;;;;;5.17;4.77;;;-0.20;99.90;;;;;;5073966;28;20224;-80
2021/01/16 01:36:40;;;;;;;7.20;5.50;;;-0.10;99.90;;;;;;5069690;28;20654;-80
2021/01/16 01:39:09;;;;;;;4.97;4.57;;;-0.20;99.90;;;;;;5052035;28;20779;-80
2021/01/16 01:41:47;;;;;;;5.20;4.40;;;-0.20;99.90;;;;;;5056100;28;20322;-80
2021/01/16 01:44:19;;;;;;;6.57;5.90;;;-0.30;99.90;;;;;;5070577;28;20217;-80
2021/01/16 01:46:48;;;;;;;6.77;4.97;;;-0.30;99.90;;;;;;5073382;28;20224;-80
2021/01/16 01:49:18;;;;;;;5.60;4.80;;;-0.20;99.90;;;;;;5087134;28;20217;-79
2021/01/16 01:51:48;;;;;;;6.93;5.70;;;-0.20;99.90;;;;;;5066752;28;20270;-80
2021/01/16 01:54:21;;;;;;;6.07;5.47;;;-0.20;99.90;;;;;;5053281;28;20222;-80
2021/01/16 01:56:57;;;;;;;6.67;5.63;;;-0.30;99.90;;;;;;5075030;28;20243;-79
2021/01/16 01:59:27;;;;;;;6.40;5.77;;;-0.20;99.90;;;;;;5076095;28;20574;-80
2021/01/16 02:02:00;;;;;;;8.90;5.47;;;-0.30;99.90;;;;;;5070601;28;20213;-81
2021/01/16 02:04:31;;;;;;;5.77;4.83;;;-0.30;99.90;;;;;;5074718;28;20351;-80
2021/01/16 02:07:24;;;;;;;6.50;5.37;;;-0.20;99.90;;;;;;5071760;28;20570;-80
2021/01/16 02:09:56;;;;;;;6.43;5.53;;;-0.20;99.90;;;;;;5067742;28;20344;-81
2021/01/16 02:12:27;;;;;;;6.27;5.67;;;-0.30;99.90;;;;;;5090940;28;20245;-83
2021/01/16 02:15:06;;;;;;;6.23;5.40;;;-0.30;99.90;;;;;;5112450;28;20228;-81
2021/01/16 02:17:44;;;;;;;6.27;5.67;;;-0.30;99.90;;;;;;5062513;28;20233;-80
2021/01/16 02:20:15;;;;;;;6.33;5.50;;;-0.30;99.90;;;;;;5077175;28;20274;-80
2021/01/16 02:23:04;;;;;;;7.10;5.60;;;-0.30;99.90;;;;;;5061735;28;20213;-80
2021/01/16 02:25:47;;;;;;;5.20;4.70;;;-0.40;99.90;;;;;;5074403;28;20748;-80
2021/01/16 02:28:22;;;;;;;6.50;5.67;;;-0.40;99.90;;;;;;5074876;28;20760;-82
2021/01/16 11:18:43;;;;;;;14.83;10.17;;;0.80;99.90;;;;;;5067252;28;20210;-85
2021/01/16 11:21:12;;;;;;;20.27;12.30;;;0.80;99.90;;;;;;5036338;28;20210;-84
2021/01/16 11:24:03;;;;;;;17.27;13.27;;;0.90;99.90;;;;;;5071114;28;20218;-84
2021/01/16 11:26:46;;;;;;;15.93;11.93;;;0.60;99.90;;;;;;5062742;28;20215;-84
2021/01/16 11:29:18;;;;;;;18.57;13.40;;;0.50;99.90;;;;;;5071969;28;20214;-84
2021/01/16 11:31:50;;;;;;;17.63;13.10;;;0.60;99.90;;;;;;5065022;28;20226;-74
2021/01/16 11:34:27;;;;;;;17.63;13.20;;;0.60;99.90;;;;;;5059687;28;20222;-75
2021/01/16 11:37:00;;;;;;;18.87;12.50;;;0.70;99.90;;;;;;5071979;28;20248;-75
2021/01/16 11:39:48;;;;;;;16.97;12.83;;;0.70;99.90;;;;;;5075695;28;20226;-75
2021/01/16 11:42:16;;;;;;;17.47;14.10;;;0.70;99.90;;;;;;5086960;28;20216;-75
2021/01/16 11:44:55;;;;;;;18.70;13.70;;;0.70;99.90;;;;;;5089292;28;20225;-75
2021/01/16 11:47:24;;;;;;;18.27;13.67;;;0.90;99.90;;;;;;5089617;28;20225;-76
2021/01/16 11:49:56;;;;;;;18.47;13.40;;;0.90;99.90;;;;;;5088894;28;20280;-75
2021/01/16 11:52:27;;;;;;;18.37;14.13;;;0.90;99.90;;;;;;5088888;28;20251;-74
2021/01/16 11:54:54;;;;;;;19.43;13.97;;;0.70;99.90;;;;;;5086674;28;20226;-74
2021/01/16 11:57:24;;;;;;;18.37;12.90;;;0.80;99.90;;;;;;5058563;28;20676;-74
2021/01/16 11:59:55;;;;;;;20.20;14.77;;;0.90;99.90;;;;;;5075631;28;20608;-74
2021/01/16 12:02:24;;;;;;;21.57;15.07;;;0.90;99.90;;;;;;5073606;28;20686;-74
2021/01/16 12:04:52;;;;;;;17.93;12.57;;;1.10;99.90;;;;;;5073836;28;20685;-75
2021/01/16 12:07:20;;;;;;;17.50;12.67;;;1.10;99.90;;;;;;5074298;28;20253;-74
2021/01/16 12:09:48;;;;;;;19.03;14.07;;;1.00;99.90;;;;;;5074240;28;20232;-75
2021/01/16 12:12:15;;;;;;;20.27;14.57;;;0.80;99.90;;;;;;5073273;28;20220;-74
2021/01/16 12:14:43;;;;;;;21.37;14.33;;;1.00;99.90;;;;;;5073815;28;20214;-75
2021/01/16 12:17:12;;;;;;;23.73;14.80;;;1.00;99.90;;;;;;5072660;28;20257;-75
2021/01/16 12:19:40;;;;;;;20.57;13.70;;;1.00;99.90;;;;;;5072102;28;20249;-75
2021/01/16 12:22:09;;;;;;;19.63;13.77;;;1.10;99.90;;;;;;5072551;28;20214;-75
2021/01/16 12:24:37;;;;;;;17.87;14.27;;;1.20;99.90;;;;;;5057103;28;20373;-75
2021/01/16 12:27:06;;;;;;;18.20;14.70;;;1.20;99.90;;;;;;5068247;28;20224;-75
2021/01/16 12:29:44;;;;;;;20.17;14.13;;;1.20;99.90;;;;;;5057230;28;20281;-75
2021/01/16 12:32:13;;;;;;;16.27;13.30;;;1.20;99.90;;;;;;5054721;28;20207;-75
2021/01/16 12:34:48;;;;;;;20.40;13.80;;;1.20;99.90;;;;;;5066839;28;20579;-83
2021/01/16 12:37:28;;;;;;;17.43;13.83;;;1.30;99.90;;;;;;5064413;28;20225;-81
2021/01/16 12:39:56;;;;;;;19.60;14.90;;;1.30;99.90;;;;;;5078133;28;20240;-81
2021/01/16 12:42:24;;;;;;;16.30;12.43;;;1.10;99.90;;;;;;5093177;28;20598;-80
2021/01/16 12:44:51;;;;;;;22.17;15.27;;;1.10;99.90;;;;;;5077223;28;20225;-81
2021/01/16 12:47:20;;;;;;;19.20;15.13;;;1.00;99.90;;;;;;5077730;28;20225;-80
2021/01/16 12:49:52;;;;;;;21.40;13.50;;;1.10;99.90;;;;;;5080407;28;20308;-86
2021/01/16 12:52:25;;;;;;;19.87;14.47;;;1.10;99.90;;;;;;5065961;28;20240;-84
2021/01/16 12:55:05;;;;;;;18.67;14.23;;;1.30;99.90;;;;;;5065729;28;20285;-85
2021/01/16 12:57:35;;;;;;;18.17;13.83;;;1.30;99.90;;;;;;5072639;28;20626;-85
2021/01/16 13:00:06;;;;;;;19.27;13.80;;;1.40;99.90;;;;;;5078368;28;20267;-85
2021/01/16 13:02:34;;;;;;;19.70;14.83;;;1.40;99.90;;;;;;5064071;28;20213;-85
2021/01/16 13:05:03;;;;;;;19.43;14.67;;;1.40;99.90;;;;;;5067577;28;20229;-83
2021/01/16 13:07:34;;;;;;;21.33;14.60;;;1.40;99.90;;;;;;5066256;28;20702;-86
2021/01/16 13:10:06;;;;;;;23.17;17.80;;;1.70;99.90;;;;;;5064306;28;20218;-85
2021/01/16 13:12:37;;;;;;;23.07;15.83;;;1.40;99.90;;;;;;5044352;28;20348;-85
2021/01/16 13:15:05;;;;;;;20.90;15.20;;;1.20;99.90;;;;;;5060744;28;20227;-85
2021/01/16 13:17:39;;;;;;;21.13;14.97;;;1.50;99.90;;;;;;5051346;28;20670;-84
2021/01/16 13:20:09;;;;;;;23.63;15.17;;;1.50;99.90;;;;;;5062451;28;20230;-84
2021/01/16 13:22:45;;;;;;;18.50;13.70;;;1.50;99.90;;;;;;5061683;28;20718;-81
2021/01/16 13:25:15;;;;;;;29.10;16.07;;;1.50;99.90;;;;;;5043368;28;20217;-82
2021/01/16 13:27:43;;;;;;;19.60;14.43;;;1.60;99.90;;;;;;5059454;28;20209;-82
2021/01/16 13:30:13;;;;;;;21.10;15.27;;;1.70;99.90;;;;;;5082941;28;20570;-79
2021/01/16 13:32:54;;;;;;;20.23;15.10;;;1.60;99.90;;;;;;5084645;28;20221;-80
2021/01/16 13:35:21;;;;;;;18.67;15.13;;;1.60;99.90;;;;;;5077061;28;20246;-81
2021/01/16 13:37:53;;;;;;;20.60;13.93;;;1.50;99.90;;;;;;5079489;28;20299;-81
2021/01/16 13:40:20;;;;;;;17.73;13.47;;;1.50;99.90;;;;;;5080861;28;20250;-81
2021/01/16 13:42:49;;;;;;;22.20;14.27;;;1.70;99.90;;;;;;5078954;28;20317;-81
2021/01/16 13:45:18;;;;;;;17.43;13.17;;;1.50;99.90;;;;;;5075312;28;20301;-80
2021/01/16 13:47:55;;;;;;;18.63;14.47;;;1.50;99.90;;;;;;5074178;28;20672;-78
2021/01/16 13:50:24;;;;;;;17.63;13.10;;;1.80;99.90;;;;;;5075149;28;20270;-81
2021/01/16 13:52:54;;;;;;;14.37;12.23;;;1.70;99.90;;;;;;5074304;28;20295;-80
2021/01/16 13:55:23;;;;;;;18.50;13.10;;;1.70;99.90;;;;;;5075040;28;20220;-79
2021/01/16 13:58:01;;;;;;;19.80;14.23;;;1.70;99.90;;;;;;5074155;28;20210;-80
2021/01/16 14:00:29;;;;;;;15.37;12.63;;;1.70;99.90;;;;;;5089885;28;20217;-81
2021/01/16 14:02:57;;;;;;;21.73;13.33;;;1.70;99.90;;;;;;5073454;28;20214;-80
2021/01/16 14:05:26;;;;;;;19.63;14.37;;;1.80;99.90;;;;;;5056819;28;20229;-80
2021/01/16 14:07:55;;;;;;;16.93;12.53;;;1.70;99.90;;;;;;5075347;28;20246;-81
2021/01/16 14:10:27;;;;;;;19.07;13.70;;;1.80;99.90;;;;;;5094956;28;20218;-80
2021/01/16 14:13:09;;;;;;;17.73;12.90;;;1.90;99.90;;;;;;5095741;28;20199;-79
2021/01/16 14:15:37;;;;;;;16.80;13.43;;;1.90;99.90;;;;;;5080150;28;20237;-78
2021/01/16 14:18:05;;;;;;;19.57;13.83;;;1.90;99.90;;;;;;5079639;28;20776;-81
2021/01/16 14:20:35;;;;;;;15.50;12.93;;;1.80;99.90;;;;;;5079819;28;20689;-80
2021/01/16 14:23:03;;;;;;;18.63;14.57;;;2.00;99.90;;;;;;5075463;28;20211;-80
2021/01/16 14:25:34;;;;;;;19.90;13.13;;;2.10;99.90;;;;;;5082028;28;20221;-80
2021/01/16 14:28:01;;;;;;;22.43;13.43;;;2.00;99.90;;;;;;5063383;28;20225;-81
2021/01/16 14:30:30;;;;;;;16.10;11.70;;;1.90;99.90;;;;;;5080493;28;20219;-81
2021/01/16 14:32:59;;;;;;;16.13;12.07;;;1.90;99.90;;;;;;5081286;28;20232;-79
2021/01/16 14:35:27;;;;;;;16.20;12.90;;;1.90;99.90;;;;;;5081324;28;20222;-80
2021/01/16 14:37:56;;;;;;;16.43;12.73;;;1.90;99.90;;;;;;5082602;28;20229;-82
2021/01/16 14:40:29;;;;;;;17.23;12.13;;;1.80;99.90;;;;;;5081772;28;20235;-79
2021/01/16 14:43:16;;;;;;;19.17;13.80;;;1.80;99.90;;;;;;5082035;28;20301;-79
2021/01/16 14:45:50;;;;;;;18.37;12.80;;;2.00;99.90;;;;;;5081535;28;20750;-81
2021/01/16 14:48:19;;;;;;;16.83;13.03;;;1.90;99.90;;;;;;5083273;28;20218;-80
2021/01/16 14:50:47;;;;;;;18.53;12.80;;;1.90;99.90;;;;;;5081646;28;20221;-80
2021/01/16 14:53:21;;;;;;;15.60;12.32;;;1.80;99.90;;;;;;5091885;28;20212;-82
2021/01/16 14:56:04;;;;;;;15.87;12.90;;;1.80;99.90;;;;;;5075568;28;20777;-81
2021/01/16 14:58:32;;;;;;;16.33;12.43;;;1.80;99.90;;;;;;5076292;28;20230;-80
2021/01/16 15:01:04;;;;;;;16.43;11.97;;;1.90;99.90;;;;;;5077964;28;20286;-80
2021/01/16 15:03:34;;;;;;;16.70;12.83;;;1.90;99.90;;;;;;5058906;28;20242;-80
2021/01/16 15:06:01;;;;;;;19.67;13.17;;;2.00;99.90;;;;;;5062087;28;20224;-81
2021/01/16 15:08:29;;;;;;;18.30;13.03;;;1.70;99.90;;;;;;5081521;28;20218;-84
2021/01/16 15:10:58;;;;;;;17.07;14.53;;;1.90;99.90;;;;;;5083150;28;20225;-83
2021/01/16 15:13:29;;;;;;;19.40;13.33;;;1.70;99.90;;;;;;5083418;28;20273;-83
2021/01/16 15:15:57;;;;;;;17.50;13.83;;;1.60;99.90;;;;;;5100476;28;20228;-84
2021/01/16 15:18:26;;;;;;;20.70;14.07;;;1.70;99.90;;;;;;5097404;28;20234;-86
2021/01/16 15:20:56;;;;;;;20.53;14.10;;;1.50;99.90;;;;;;5081017;28;20214;-84
2021/01/16 15:23:24;;;;;;;19.47;14.77;;;1.50;99.90;;;;;;5081097;28;20221;-84
2021/01/16 15:25:51;;;;;;;22.07;15.13;;;1.50;99.90;;;;;;5064168;28;20304;-84
2021/01/16 15:28:23;;;;;;;21.20;15.43;;;1.40;99.90;;;;;;5081528;28;20305;-82
2021/01/16 15:31:00;;;;;;;22.07;16.13;;;1.40;99.90;;;;;;5079697;28;20210;-80
2021/01/16 15:33:40;;;;;;;21.67;14.87;;;1.30;99.90;;;;;;5080878;28;20214;-80
2021/01/16 15:36:07;;;;;;;19.03;15.03;;;1.30;99.90;;;;;;5083513;28;20225;-82
2021/01/16 15:38:39;;;;;;;26.10;17.27;;;1.30;99.90;;;;;;5086251;28;21106;-82
2021/01/16 15:41:08;;;;;;;31.10;20.30;;;1.10;99.90;;;;;;5085758;28;20221;-83
2021/01/16 15:43:37;;;;;;;24.53;17.33;;;1.10;99.90;;;;;;5065958;28;20366;-82
2021/01/16 15:46:07;;;;;;;26.00;16.53;;;1.10;99.90;;;;;;5082254;28;20252;-83
2021/01/16 15:48:40;;;;;;;21.83;14.63;;;1.00;99.90;;;;;;5083839;28;20218;-84
2021/01/16 15:51:23;;;;;;;26.70;18.40;;;1.00;99.90;;;;;;5084358;28;20720;-83
2021/01/16 15:53:50;;;;;;;27.17;20.00;;;1.10;99.90;;;;;;5095129;28;20255;-87
2021/01/16 15:56:25;;;;;;;32.30;22.13;;;1.10;99.90;;;;;;5098601;28;20213;-87
2021/01/16 15:58:53;;;;;;;27.40;21.80;;;1.10;99.90;;;;;;5098260;28;20229;-82
2021/01/16 16:01:22;;;;;;;20.00;17.10;;;1.00;99.90;;;;;;5098990;28;20201;-78
2021/01/16 16:03:52;;;;;;;22.20;17.87;;;0.90;99.90;;;;;;5098255;28;20259;-83
2021/01/16 16:06:19;;;;;;;21.67;15.60;;;1.20;99.90;;;;;;5096739;28;20211;-80
2021/01/16 16:08:46;;;;;;;20.67;14.57;;;1.20;99.90;;;;;;5096014;28;20226;-82
2021/01/16 16:11:13;;;;;;;21.10;15.37;;;1.20;99.90;;;;;;5071185;28;20267;-78
2021/01/16 16:13:45;;;;;;;19.90;14.97;;;1.10;99.90;;;;;;5080561;28;20210;-80
2021/01/16 16:16:15;;;;;;;20.17;14.70;;;1.10;99.90;;;;;;5079413;28;20590;-79
2021/01/16 16:18:44;;;;;;;22.70;16.20;;;1.00;99.90;;;;;;5078686;28;20256;-81
2021/01/16 16:21:11;;;;;;;26.83;18.13;;;1.00;99.90;;;;;;5076361;28;20725;-79
2021/01/16 16:23:39;;;;;;;25.60;18.63;;;1.00;99.90;;;;;;5075517;28;20218;-78
2021/01/16 16:26:08;;;;;;;24.80;18.93;;;1.10;99.90;;;;;;5076383;28;20240;-79
2021/01/16 16:28:35;;;;;;;23.57;16.33;;;1.20;99.90;;;;;;5073917;28;20276;-79
2021/01/16 16:31:02;;;;;;;19.53;14.90;;;1.10;99.90;;;;;;5074419;28;20221;-79
2021/01/16 16:33:29;;;;;;;22.40;16.17;;;1.00;99.90;;;;;;5091020;28;20248;-80
2021/01/16 16:35:58;;;;;;;26.17;17.40;;;1.00;99.90;;;;;;5075225;28;20221;-80
2021/01/16 16:38:25;;;;;;;22.07;15.20;;;0.90;99.90;;;;;;5078435;28;20225;-79
2021/01/16 16:40:52;;;;;;;19.30;15.33;;;0.90;99.90;;;;;;5074257;28;20252;-80
2021/01/16 16:43:20;;;;;;;25.27;16.37;;;0.90;99.90;;;;;;5074274;28;20306;-82
2021/01/16 16:45:49;;;;;;;21.87;15.30;;;1.00;99.90;;;;;;5074345;28;20253;-80
2021/01/16 16:48:17;;;;;;;22.10;16.60;;;1.10;99.90;;;;;;5074319;28;20690;-81
2021/01/16 16:50:45;;;;;;;21.73;15.60;;;1.30;99.90;;;;;;5073187;28;20222;-79
2021/01/16 16:53:14;;;;;;;20.37;15.83;;;1.10;99.90;;;;;;5074468;28;20214;-79
2021/01/16 16:55:41;;;;;;;22.80;16.87;;;1.10;99.90;;;;;;5072930;28;20223;-79
2021/01/16 16:58:09;;;;;;;20.10;15.20;;;1.10;99.90;;;;;;5072175;28;20696;-78
2021/01/16 17:00:37;;;;;;;21.97;16.53;;;1.10;99.90;;;;;;5073581;28;20248;-81
2021/01/16 17:03:05;;;;;;;20.13;16.23;;;1.10;99.90;;;;;;5090507;28;20238;-79
2021/01/16 17:05:56;;;;;;;20.83;16.47;;;1.10;99.90;;;;;;5074903;28;20275;-80
2021/01/16 17:08:31;;;;;;;18.70;14.13;;;1.10;99.90;;;;;;5074102;28;20216;-81
2021/01/16 17:10:59;;;;;;;22.77;16.13;;;1.00;99.90;;;;;;5062146;28;20218;-82
2021/01/16 17:13:26;;;;;;;20.97;15.37;;;1.10;99.90;;;;;;5080516;28;20241;-84
2021/01/16 17:15:54;;;;;;;20.83;15.93;;;1.10;99.90;;;;;;5080585;28;20768;-86
2021/01/16 17:18:22;;;;;;;22.93;16.23;;;1.10;99.90;;;;;;5095072;28;20248;-82
2021/01/16 17:20:49;;;;;;;23.80;15.93;;;1.10;99.90;;;;;;5078368;28;20246;-81
2021/01/16 17:23:20;;;;;;;22.87;17.23;;;1.10;99.90;;;;;;5076938;28;20687;-82
2021/01/16 17:25:49;;;;;;;23.37;18.67;;;1.10;99.90;;;;;;5076519;28;20329;-81
2021/01/16 17:28:16;;;;;;;22.13;16.13;;;1.00;99.90;;;;;;5066290;28;20223;-83
2021/01/16 17:30:43;;;;;;;27.30;17.90;;;1.00;99.90;;;;;;5059368;28;20219;-81
2021/01/16 17:33:11;;;;;;;22.30;16.57;;;1.00;99.90;;;;;;5056531;28;20207;-83
2021/01/16 17:35:38;;;;;;;21.70;16.17;;;1.00;99.90;;;;;;5040313;28;20229;-81
2021/01/16 17:38:07;;;;;;;24.03;15.67;;;1.30;99.90;;;;;;5058359;28;20741;-83
2021/01/16 17:40:34;;;;;;;19.00;15.33;;;1.10;99.90;;;;;;5056533;28;20329;-82
2021/01/16 17:43:03;;;;;;;22.37;15.87;;;1.20;99.90;;;;;;5057280;28;20695;-83
2021/01/16 17:45:30;;;;;;;21.27;15.53;;;1.30;99.90;;;;;;5064258;28;20691;-84
2021/01/16 17:47:58;;;;;;;23.70;15.83;;;1.20;99.90;;;;;;5058319;28;20235;-84
2021/01/16 17:50:25;;;;;;;27.67;19.00;;;1.30;99.90;;;;;;5076155;28;20312;-84
2021/01/16 17:52:53;;;;;;;17.30;13.80;;;1.20;99.90;;;;;;5079219;28;20268;-83
2021/01/16 17:55:22;;;;;;;19.70;14.87;;;1.20;99.90;;;;;;5077891;28;20667;-81
2021/01/16 17:57:50;;;;;;;22.47;16.83;;;1.20;99.90;;;;;;5077136;28;20215;-83
2021/01/16 18:00:23;;;;;;;23.87;16.40;;;1.20;99.90;;;;;;5080148;28;20230;-83
2021/01/16 18:02:59;;;;;;;23.10;17.93;;;1.20;99.90;;;;;;5081443;28;20789;-82
2021/01/16 18:05:27;;;;;;;21.50;16.37;;;1.30;99.90;;;;;;5080325;28;20233;-86
2021/01/16 18:07:56;;;;;;;20.77;17.17;;;1.20;99.90;;;;;;5084181;28;20251;-86
2021/01/16 18:10:26;;;;;;;23.10;17.33;;;1.40;99.90;;;;;;5086328;28;20241;-85
2021/01/16 18:12:53;;;;;;;22.70;16.43;;;1.10;99.90;;;;;;5081714;28;20239;-84
2021/01/16 18:15:22;;;;;;;23.47;16.90;;;1.30;99.90;;;;;;5082131;28;20229;-84
2021/01/16 18:17:49;;;;;;;24.50;18.00;;;1.30;99.90;;;;;;5080241;28;20754;-85
2021/01/16 18:20:18;;;;;;;21.97;16.33;;;1.30;99.90;;;;;;5080660;28;20222;-86
2021/01/16 18:22:48;;;;;;;20.83;16.63;;;1.40;99.90;;;;;;5080175;28;20197;-83
2021/01/16 18:25:27;;;;;;;25.10;18.15;;;1.30;99.90;;;;;;5096619;28;20330;-84
2021/01/16 18:27:57;;;;;;;23.10;16.27;;;1.30;99.90;;;;;;5077437;28;20233;-81
2021/01/16 18:30:31;;;;;;;22.03;17.30;;;1.30;99.90;;;;;;5076159;28;20218;-81
2021/01/16 18:36:43;;;;;;;28.50;20.13;;;1.30;99.90;;;;;;5026512;28;20223;-81
2021/01/16 18:39:24;;;;;;;26.27;18.63;;;1.10;99.90;;;;;;5071365;28;20321;-80
2021/01/16 18:42:16;;;;;;;23.97;17.43;;;1.10;99.90;;;;;;5058157;28;20306;-80
2021/01/16 18:45:13;;;;;;;25.53;18.83;;;1.00;99.90;;;;;;5072134;28;20241;-79
2021/01/16 18:47:56;;;;;;;23.53;18.53;;;1.00;99.90;;;;;;5041244;28;20702;-81
2021/01/16 18:50:32;;;;;;;25.23;17.23;;;1.10;99.90;;;;;;5081897;28;20223;-87
2021/01/16 18:53:04;;;;;;;26.97;18.70;;;1.10;99.90;;;;;;5082183;28;20211;-84
2021/01/16 19:00:12;;;;;;;19.60;14.43;;;1.20;99.90;;;;;;5089253;28;20234;-85
2021/01/16 19:02:56;;;;;;;21.43;15.77;;;1.20;99.90;;;;;;5097958;28;20232;-86
2021/01/16 19:05:27;;;;;;;23.30;16.20;;;1.40;99.90;;;;;;5088489;28;20233;-87
2021/01/16 19:07:55;;;;;;;22.43;15.87;;;1.20;99.90;;;;;;5082383;28;20231;-85
2021/01/16 19:10:23;;;;;;;21.60;17.13;;;1.40;99.90;;;;;;5086718;28;20237;-85
2021/01/16 19:12:54;;;;;;;24.70;17.40;;;1.40;99.90;;;;;;5086606;28;20272;-85
2021/01/16 19:15:21;;;;;;;25.87;16.07;;;1.40;99.90;;;;;;5083531;28;20214;-85
2021/01/16 19:17:54;;;;;;;24.43;17.87;;;1.30;99.90;;;;;;5083265;28;20262;-85
2021/01/16 19:20:21;;;;;;;27.23;17.43;;;1.40;99.90;;;;;;5083395;28;20233;-85
2021/01/16 19:22:54;;;;;;;25.73;19.93;;;1.30;99.90;;;;;;5068147;28;20225;-86
2021/01/16 19:25:37;;;;;;;22.20;17.27;;;1.30;99.90;;;;;;5081844;28;20237;-85
2021/01/16 19:28:05;;;;;;;25.97;18.00;;;1.30;99.90;;;;;;5084072;28;20199;-85
2021/01/16 19:30:36;;;;;;;24.83;18.40;;;1.30;99.90;;;;;;5085265;28;20229;-85
2021/01/16 19:33:08;;;;;;;24.00;17.90;;;1.30;99.90;;;;;;5088560;28;20233;-84
2021/01/16 19:35:35;;;;;;;24.13;17.93;;;1.30;99.90;;;;;;5093190;28;20301;-84
2021/01/16 19:38:05;;;;;;;26.70;19.20;;;1.30;99.90;;;;;;5093382;28;20214;-85
2021/01/16 19:40:32;;;;;;;23.10;16.63;;;1.20;99.90;;;;;;5091269;28;20268;-86
2021/01/16 19:43:00;;;;;;;21.00;17.60;;;1.20;99.90;;;;;;5102806;28;20225;-85
2021/01/16 19:45:29;;;;;;;24.00;18.83;;;1.20;99.90;;;;;;5081746;28;20226;-87
2021/01/16 19:47:59;;;;;;;25.23;17.83;;;1.20;99.90;;;;;;5061443;28;20272;-88
2021/01/16 19:50:28;;;;;;;21.40;15.67;;;1.30;99.90;;;;;;5068839;28;20219;-86
2021/01/16 19:53:02;;;;;;;22.03;16.47;;;1.40;99.90;;;;;;5084659;28;20303;-84
2021/01/16 19:55:30;;;;;;;23.83;16.43;;;1.30;99.90;;;;;;5080813;28;20268;-86
2021/01/16 19:58:00;;;;;;;22.77;16.47;;;1.50;99.90;;;;;;5063661;28;20294;-86
2021/01/16 20:00:28;;;;;;;21.07;14.93;;;1.30;99.90;;;;;;5051080;28;20222;-86
2021/01/16 20:03:05;;;;;;;20.80;17.00;;;1.30;99.90;;;;;;5054406;28;20277;-86
2021/01/16 20:05:39;;;;;;;19.00;15.23;;;1.20;99.90;;;;;;5064469;28;20225;-86
2021/01/16 20:08:09;;;;;;;29.33;19.87;;;1.30;99.90;;;;;;5060816;28;20209;-86
2021/01/16 20:11:11;;;;;;;24.30;19.80;;;1.30;99.90;;;;;;5064322;28;20225;-84
2021/01/16 20:13:38;;;;;;;22.60;17.50;;;1.30;99.90;;;;;;5063980;28;20271;-85
2021/01/16 20:16:06;;;;;;;20.50;17.23;;;1.60;99.90;;;;;;5080769;28;20227;-87
2021/01/16 20:26:49;;;;;;;21.00;16.50;;;1.30;99.90;;;;;;5076430;28;20250;-86
